createdAt,value
2023-01-18T00:04:15.706Z,14.86
2023-01-18T00:08:34.587Z,15.03
2023-01-18T00:12:51.945Z,15.08
2023-01-18T00:17:09.466Z,14.91
2023-01-18T00:21:27.907Z,14.93
2023-01-18T00:25:45.233Z,15.05
2023-01-18T00:30:04.841Z,14.81
2023-01-18T00:34:22.254Z,13.84
2023-01-18T00:38:39.731Z,14.87
2023-01-18T00:43:15.874Z,14.93
2023-01-18T00:47:33.480Z,14.89
2023-01-18T00:51:52.517Z,14.92
2023-01-18T00:56:11.453Z,14.97
2023-01-18T01:00:29.003Z,15.36
2023-01-18T01:05:05.278Z,14.60
2023-01-18T01:09:29.155Z,14.02
2023-01-18T01:14:05.344Z,14.86
2023-01-18T01:18:41.805Z,15.18
2023-01-18T01:23:26.839Z,15.01
2023-01-18T01:27:44.276Z,15.12
2023-01-18T01:32:03.504Z,15.36
2023-01-18T01:36:27.882Z,15.74
2023-01-18T01:40:55.283Z,14.13
2023-01-18T01:45:12.200Z,14.65
2023-01-18T01:49:47.451Z,14.90
2023-01-18T01:54:07.145Z,15.15
2023-01-18T01:58:28.045Z,15.23
2023-01-18T02:02:48.757Z,15.28
2023-01-18T02:07:06.702Z,15.80
2023-01-18T02:11:36.654Z,15.53
2023-01-18T02:16:13.017Z,14.05
2023-01-18T02:20:50.073Z,14.90
2023-01-18T02:25:41.735Z,15.31
2023-01-18T02:30:28.072Z,15.36
2023-01-18T02:34:52.527Z,15.05
2023-01-18T02:39:39.339Z,15.54
2023-01-18T02:44:16.045Z,15.92
2023-01-18T02:48:40.023Z,14.36
2023-01-18T02:52:57.797Z,14.40
2023-01-18T02:57:16.217Z,15.03
2023-01-18T03:01:47.047Z,15.31
2023-01-18T03:06:05.851Z,15.25
2023-01-18T03:10:27.078Z,15.25
2023-01-18T03:14:56.738Z,15.64
2023-01-18T03:19:37.792Z,16.03
2023-01-18T03:23:55.412Z,14.19
2023-01-18T03:28:48.783Z,15.01
2023-01-18T03:33:25.793Z,15.27
2023-01-18T03:37:45.569Z,15.43
2023-01-18T03:42:12.157Z,15.32
2023-01-18T03:46:32.056Z,15.39
2023-01-18T03:50:53.481Z,16.03
2023-01-18T03:55:49.195Z,15.05
2023-01-18T04:00:08.792Z,14.01
2023-01-18T04:04:26.205Z,15.36
2023-01-18T04:08:43.601Z,15.59
2023-01-18T04:13:01.511Z,15.55
2023-01-18T04:17:19.916Z,15.56
2023-01-18T04:21:38.673Z,15.97
2023-01-18T04:25:56.127Z,16.24
2023-01-18T04:30:13.800Z,14.92
2023-01-18T04:34:32.199Z,14.12
2023-01-18T04:38:54.199Z,15.40
2023-01-18T04:43:11.679Z,15.76
2023-01-18T04:47:31.593Z,15.67
2023-01-18T04:51:49.381Z,15.64
2023-01-18T04:56:07.032Z,15.86
2023-01-18T05:00:24.323Z,16.41
2023-01-18T05:04:42.268Z,14.87
2023-01-18T05:08:59.584Z,14.26
2023-01-18T05:13:17.165Z,15.36
2023-01-18T05:17:35.288Z,14.97
2023-01-18T05:21:52.871Z,14.68
2023-01-18T05:26:19.216Z,14.94
2023-01-18T05:30:42.204Z,14.85
2023-01-18T05:34:59.567Z,14.92
2023-01-18T05:39:16.993Z,15.01
2023-01-18T05:43:35.794Z,14.19
2023-01-18T05:47:55.268Z,14.52
2023-01-18T05:52:12.637Z,14.65
2023-01-18T05:56:31.292Z,14.70
2023-01-18T06:00:48.814Z,14.71
2023-01-18T06:05:06.771Z,14.80
2023-01-18T06:09:24.141Z,14.88
2023-01-18T06:13:41.921Z,14.79
2023-01-18T06:18:00.125Z,14.03
2023-01-18T06:22:17.701Z,15.03
2023-01-18T06:26:35.041Z,14.97
2023-01-18T06:30:54.056Z,14.74
2023-01-18T06:35:11.550Z,14.79
2023-01-18T06:39:29.399Z,14.87
2023-01-18T06:43:46.777Z,14.84
2023-01-18T06:48:04.422Z,14.59
2023-01-18T06:52:21.799Z,14.11
2023-01-18T06:56:40.263Z,14.48
2023-01-18T07:00:59.297Z,14.69
2023-01-18T07:05:17.029Z,14.82
2023-01-18T07:09:34.496Z,14.81
2023-01-18T07:13:54.110Z,14.91
2023-01-18T07:18:11.484Z,15.07
2023-01-18T07:22:28.940Z,14.50
2023-01-18T07:26:46.326Z,14.33
2023-01-18T07:31:05.126Z,15.35
2023-01-18T07:35:22.530Z,15.50
2023-01-18T07:39:40.027Z,15.20
2023-01-18T07:43:57.348Z,14.90
2023-01-18T07:48:15.871Z,15.04
2023-01-18T07:52:33.299Z,15.13
2023-01-18T07:56:50.808Z,14.85
2023-01-18T08:01:14.343Z,14.29
2023-01-18T08:05:32.458Z,15.45
2023-01-18T08:09:50.276Z,15.56
2023-01-18T08:14:07.959Z,15.11
2023-01-18T08:18:25.319Z,14.93
2023-01-18T08:22:42.855Z,15.11
2023-01-18T08:27:00.163Z,15.10
2023-01-18T08:31:20.300Z,14.83
2023-01-18T08:35:47.788Z,14.45
2023-01-18T08:40:05.784Z,15.53
2023-01-18T08:44:23.386Z,15.46
2023-01-18T08:48:59.619Z,15.15
2023-01-18T08:53:36.019Z,15.09
2023-01-18T08:57:59.478Z,15.24
2023-01-18T09:02:17.225Z,15.31
2023-01-18T09:06:34.771Z,14.98
2023-01-18T09:10:52.155Z,14.36
2023-01-18T09:15:13.098Z,15.48
2023-01-18T09:19:30.649Z,15.57
2023-01-18T09:23:49.146Z,14.64
2023-01-18T09:28:06.691Z,15.02
2023-01-18T09:32:25.621Z,15.02
2023-01-18T09:36:43.177Z,15.00
2023-01-18T09:41:00.738Z,15.12
2023-01-18T09:45:29.511Z,15.12
2023-01-18T09:50:14.947Z,15.43
2023-01-18T09:54:49.680Z,14.82
2023-01-18T09:59:33.798Z,14.09
2023-01-18T10:03:55.817Z,15.52
2023-01-18T10:08:16.755Z,15.75
2023-01-18T10:12:40.826Z,14.58
2023-01-18T10:17:02.748Z,14.16
2023-01-18T10:21:47.760Z,14.99
2023-01-18T10:26:12.517Z,15.53
2023-01-18T10:30:33.076Z,16.06
2023-01-18T10:34:51.995Z,15.95
2023-01-18T10:39:35.133Z,16.18
2023-01-18T10:43:52.474Z,16.65
2023-01-18T10:48:18.731Z,16.46
2023-01-18T10:52:36.242Z,14.98
2023-01-18T10:57:03.302Z,15.44
2023-01-18T11:01:31.846Z,15.89
2023-01-18T11:05:49.809Z,16.11
2023-01-18T11:10:24.309Z,16.14
2023-01-18T11:14:42.134Z,16.33
2023-01-18T11:19:00.003Z,16.28
2023-01-18T11:23:35.996Z,16.30
2023-01-18T11:28:00.980Z,16.29
2023-01-18T11:32:25.692Z,16.20
2023-01-18T11:36:45.100Z,16.26
2023-01-18T11:41:14.481Z,16.32
2023-01-18T11:45:35.982Z,15.92
2023-01-18T11:50:21.571Z,14.94
2023-01-18T11:54:50.043Z,15.53
2023-01-18T11:59:16.164Z,15.93
2023-01-18T12:03:42.871Z,16.03
2023-01-18T12:08:03.352Z,15.93
2023-01-18T12:12:26.735Z,16.11
2023-01-18T12:16:44.242Z,16.12
2023-01-18T12:21:13.308Z,16.13
2023-01-18T12:26:11.909Z,15.99
2023-01-18T12:30:43.264Z,16.08
2023-01-18T12:35:23.787Z,16.03
2023-01-18T12:39:53.463Z,16.09
2023-01-18T12:44:47.497Z,16.02
2023-01-18T12:49:19.078Z,16.10
2023-01-18T12:53:59.515Z,14.87
2023-01-18T12:58:25.472Z,14.68
2023-01-18T13:02:45.883Z,15.56
2023-01-18T13:07:07.545Z,15.64
2023-01-18T13:11:35.759Z,15.75
2023-01-18T13:15:59.390Z,15.74
2023-01-18T13:20:26.436Z,15.85
2023-01-18T13:24:47.193Z,15.83
2023-01-18T13:29:20.333Z,15.96
2023-01-18T13:33:45.099Z,15.94
2023-01-18T13:38:13.958Z,15.93
2023-01-18T13:42:38.277Z,15.87
2023-01-18T13:46:59.415Z,14.77
2023-01-18T13:51:39.450Z,14.67
2023-01-18T13:56:00.517Z,15.49
2023-01-18T14:00:25.623Z,15.68
2023-01-18T14:04:43.481Z,15.76
2023-01-18T14:09:14.785Z,15.88
2023-01-18T14:13:59.256Z,15.85
2023-01-18T14:18:28.593Z,15.96
2023-01-18T14:23:34.249Z,15.87
2023-01-18T14:28:14.963Z,15.90
2023-01-18T14:32:39.461Z,14.76
2023-01-18T14:36:57.879Z,14.64
2023-01-18T14:41:17.604Z,15.50
2023-01-18T14:45:37.516Z,15.68
2023-01-18T14:49:56.013Z,15.59
2023-01-18T14:54:17.187Z,15.78
2023-01-18T14:58:42.546Z,15.74
2023-01-18T15:03:01.370Z,15.86
2023-01-18T15:07:24.450Z,15.84
2023-01-18T15:11:42.752Z,15.85
2023-01-18T15:16:02.337Z,15.93
2023-01-18T15:20:19.931Z,15.91
2023-01-18T15:24:40.178Z,15.86
2023-01-18T15:29:08.839Z,14.51
2023-01-18T15:33:27.379Z,14.81
2023-01-18T15:58:56.873Z,16.10
2023-01-18T16:03:54.206Z,14.90
2023-01-18T16:08:22.803Z,14.19
2023-01-18T16:12:40.700Z,14.06
2023-01-18T16:17:04.719Z,13.85
2023-01-18T16:21:42.022Z,13.85
2023-01-18T16:26:04.896Z,13.64
2023-01-18T16:30:28.014Z,13.67
2023-01-18T16:34:45.588Z,13.58
2023-01-18T16:39:03.304Z,13.54
2023-01-18T16:43:29.538Z,13.48
2023-01-18T16:47:47.360Z,13.52
2023-01-18T16:52:07.439Z,13.38
2023-01-18T16:56:24.968Z,13.39
2023-01-18T17:00:59.582Z,13.46
2023-01-18T17:05:17.923Z,13.31
2023-01-18T17:09:47.116Z,13.32
2023-01-18T17:14:05.328Z,13.18
2023-01-18T17:18:25.982Z,13.22
2023-01-18T17:22:43.795Z,13.14
2023-01-18T17:27:04.264Z,13.12
2023-01-18T17:31:21.979Z,13.15
2023-01-18T17:35:39.448Z,13.06
2023-01-18T17:40:12.225Z,13.04
2023-01-18T17:44:37.353Z,13.17
2023-01-18T17:48:55.825Z,12.98
2023-01-18T17:53:16.434Z,13.16
2023-01-18T17:57:34.646Z,12.97
2023-01-18T18:01:52.354Z,13.06
2023-01-18T18:06:11.205Z,12.87
2023-01-18T18:10:31.246Z,12.99
2023-01-18T18:14:51.817Z,12.94
2023-01-18T18:19:09.303Z,12.98
2023-01-18T18:23:28.301Z,12.88
2023-01-18T18:27:46.866Z,12.85
2023-01-18T18:32:06.609Z,13.00
2023-01-18T18:36:27.480Z,12.93
2023-01-18T18:40:46.088Z,12.82
2023-01-18T18:45:03.795Z,12.81
2023-01-18T18:49:21.466Z,12.80
2023-01-18T18:53:39.841Z,12.76
2023-01-18T18:57:58.492Z,12.81
2023-01-18T19:02:16.550Z,12.76
2023-01-18T19:06:35.439Z,12.80
2023-01-18T19:10:57.387Z,12.56
2023-01-18T19:15:15.026Z,12.60
2023-01-18T19:19:32.832Z,12.67
2023-01-18T19:23:50.530Z,12.51
2023-01-18T19:28:08.603Z,12.51
2023-01-18T19:32:26.566Z,12.53
2023-01-18T19:36:44.503Z,12.54
2023-01-18T19:41:03.323Z,12.42
2023-01-18T19:45:27.956Z,12.45
2023-01-18T19:49:46.562Z,12.42
2023-01-18T19:54:04.950Z,12.44
2023-01-18T19:58:22.597Z,12.39
2023-01-18T20:02:41.522Z,12.36
2023-01-18T20:06:59.400Z,12.32
2023-01-18T20:11:16.494Z,12.32
2023-01-18T20:15:33.937Z,12.31
2023-01-18T20:19:54.307Z,12.30
2023-01-18T20:24:11.848Z,12.26
2023-01-18T20:28:29.982Z,12.26
2023-01-18T20:32:47.585Z,12.23
2023-01-18T20:37:05.879Z,12.17
2023-01-18T20:41:23.360Z,12.18
2023-01-18T20:45:40.910Z,12.17
2023-01-18T20:49:58.386Z,12.17
2023-01-18T20:54:16.815Z,12.13
2023-01-18T20:58:34.617Z,12.12
2023-01-18T21:02:52.188Z,12.09
2023-01-18T21:07:09.868Z,12.09
2023-01-18T21:11:28.180Z,12.05
2023-01-18T21:15:46.724Z,12.07
2023-01-18T21:20:04.641Z,12.03
2023-01-18T21:24:22.309Z,12.01
2023-01-18T21:28:40.459Z,12.01
2023-01-18T21:32:58.134Z,11.99
2023-01-18T21:37:15.862Z,11.97
2023-01-18T21:41:52.330Z,11.98
2023-01-18T21:46:11.501Z,11.94
2023-01-18T21:50:48.307Z,11.90
2023-01-18T21:55:06.021Z,11.93
2023-01-18T21:59:23.675Z,11.87
2023-01-18T22:03:41.681Z,11.86
2023-01-18T22:07:59.516Z,11.86
2023-01-18T22:12:17.312Z,11.84
2023-01-18T22:16:35.177Z,11.82
2023-01-18T22:20:56.618Z,11.79
2023-01-18T22:25:14.214Z,11.79
2023-01-18T22:29:32.018Z,11.76
2023-01-18T22:33:49.845Z,11.73
2023-01-18T22:38:07.612Z,11.75
2023-01-18T22:42:25.426Z,11.72
2023-01-18T22:46:43.363Z,11.72
2023-01-18T22:51:02.066Z,11.70
2023-01-18T22:55:19.516Z,11.73
2023-01-18T22:59:37.319Z,11.68
2023-01-18T23:04:08.977Z,11.69
2023-01-18T23:08:42.643Z,11.69
2023-01-18T23:13:01.151Z,11.70
2023-01-18T23:17:37.333Z,11.64
2023-01-18T23:21:55.936Z,11.63
2023-01-18T23:26:13.447Z,11.63
2023-01-18T23:30:32.860Z,11.63
2023-01-18T23:34:50.500Z,11.63
2023-01-18T23:39:26.947Z,11.62
2023-01-18T23:44:02.941Z,11.64
2023-01-18T23:48:39.745Z,11.57
2023-01-18T23:53:19.536Z,11.58
2023-01-18T23:57:37.232Z,11.55
